TPQ weather

Amado Nervo National Airport
Tepic, Nayarit, Mexico

Public forecast

Using degrees Celsius for public forecast. Weather courtesy of forecast.io.

METAR (pilot weather report)

Report is more than 2 hours old.

Retrieved 2019/05/24 01:45 UTC (3 hours ago):

MMEP 240145Z 02006KT 12SM SKC 23/14 A2993 RMK HZY

TAF (pilot weather forecast)

Forecast is more than 6 hours old.

Retrieved 2019/05/23 18:44 UTC (10 hours ago):

TAF MMEP 231639Z 2318/2418 32006KT P6SM SKC BECMG 2320/2321 36012KT SCT030 FM240200 00000KT P6SM SKC BECMG 2412/2413 6SM HZ SCT220